Time;durP1;ratioP1;P1;durP2;ratioP2;P2;SDS_P1;SDS_P2;PMS_P1;PMS_P2;Temp;Humidity;BMP_temperature;BMP_pressure;BME280_temperature;BME280_humidity;BME280_pressure;Samples;Min_cycle;Max_cycle;Signal;HPM_P1;HPM_P2
2022/08/30 00:03:23;;;;;;;5.50;3.10;;;15.60;84.00;;;;;;4914820;29;20292;-68
2022/08/30 00:05:49;;;;;;;6.00;2.77;;;15.60;83.80;;;;;;4931727;29;20283;-68
2022/08/30 00:08:15;;;;;;;6.17;2.40;;;15.70;83.70;;;;;;4924096;29;20671;-68
2022/08/30 00:10:42;;;;;;;7.10;3.10;;;15.70;83.60;;;;;;4913865;29;20527;-68
2022/08/30 00:13:11;;;;;;;4.03;2.70;;;15.70;83.40;;;;;;4931047;29;20291;-68
2022/08/30 00:15:37;;;;;;;5.40;2.80;;;15.70;83.50;;;;;;4931981;29;20362;-68
2022/08/30 00:18:03;;;;;;;4.13;2.37;;;15.70;83.60;;;;;;4916566;29;20311;-68
2022/08/30 00:20:31;;;;;;;6.07;3.00;;;15.70;83.60;;;;;;4918540;29;20902;-68
2022/08/30 00:22:57;;;;;;;5.53;2.73;;;15.70;83.50;;;;;;4924743;29;20044;-68
2022/08/30 00:25:24;;;;;;;4.57;3.10;;;15.70;83.50;;;;;;4916325;29;20661;-68
2022/08/30 00:27:49;;;;;;;5.20;3.10;;;15.70;83.60;;;;;;4924356;29;20054;-68
2022/08/30 00:30:16;;;;;;;8.13;3.20;;;15.60;83.50;;;;;;4916274;29;20569;-68
2022/08/30 00:32:42;;;;;;;4.17;2.77;;;15.60;83.40;;;;;;4932145;29;20048;-68
2022/08/30 00:35:10;;;;;;;4.70;2.77;;;15.60;83.60;;;;;;4896285;29;20288;-68
2022/08/30 00:37:36;;;;;;;7.17;3.37;;;15.60;83.40;;;;;;4924318;29;20103;-68
2022/08/30 00:40:04;;;;;;;6.60;3.23;;;15.60;83.50;;;;;;4924852;29;20287;-68
2022/08/30 00:42:31;;;;;;;6.33;3.10;;;15.60;83.40;;;;;;4929102;29;20039;-68
2022/08/30 00:44:57;;;;;;;4.90;3.17;;;15.60;83.50;;;;;;4909576;29;20288;-68
2022/08/30 00:47:23;;;;;;;4.33;3.37;;;15.50;83.80;;;;;;4901631;29;20287;-68
2022/08/30 00:49:53;;;;;;;5.27;3.23;;;15.50;83.90;;;;;;4883277;29;20723;-68
2022/08/30 00:52:21;;;;;;;7.00;3.63;;;15.50;83.80;;;;;;4924354;29;20428;-68
2022/08/30 00:54:48;;;;;;;4.93;3.00;;;15.50;83.90;;;;;;4921863;29;20649;-68
2022/08/30 00:57:14;;;;;;;4.50;3.10;;;15.50;83.70;;;;;;4910543;29;20805;-68
2022/08/30 00:59:43;;;;;;;5.53;3.40;;;15.50;83.80;;;;;;4930861;29;20300;-68
2022/08/30 01:02:10;;;;;;;5.97;3.50;;;15.50;84.10;;;;;;4929156;29;20359;-68
2022/08/30 01:04:39;;;;;;;4.77;3.10;;;15.40;84.40;;;;;;4921293;29;20327;-68
2022/08/30 01:07:07;;;;;;;5.27;3.80;;;15.40;84.60;;;;;;4923066;29;20382;-68
2022/08/30 01:09:33;;;;;;;6.07;3.30;;;15.40;84.30;;;;;;4911808;29;20287;-68
2022/08/30 01:12:00;;;;;;;5.37;2.97;;;15.30;84.20;;;;;;4890825;29;20371;-68
2022/08/30 01:14:26;;;;;;;5.87;3.60;;;15.40;84.20;;;;;;4888518;29;20296;-68
2022/08/30 01:16:55;;;;;;;5.27;3.17;;;15.30;84.20;;;;;;4946661;28;20375;-68
2022/08/30 01:19:49;;;;;;;4.63;2.80;;;15.30;84.40;;;;;;4914568;29;20303;-68
2022/08/30 01:22:33;;;;;;;4.90;2.80;;;15.30;84.30;;;;;;4911986;29;20359;-68
2022/08/30 01:25:04;;;;;;;6.57;3.03;;;15.30;84.50;;;;;;4916284;29;20705;-68
2022/08/30 01:27:31;;;;;;;6.77;3.33;;;15.20;84.30;;;;;;4913356;29;20308;-68
2022/08/30 01:29:58;;;;;;;6.63;3.37;;;15.20;84.10;;;;;;4930228;29;20738;-68
2022/08/30 01:32:27;;;;;;;5.57;3.40;;;15.20;84.10;;;;;;4926961;29;20767;-68
2022/08/30 01:34:54;;;;;;;7.30;3.03;;;15.20;84.20;;;;;;4914396;29;20371;-68
2022/08/30 01:37:30;;;;;;;4.83;2.93;;;15.10;84.20;;;;;;4928956;29;20312;-68
2022/08/30 01:39:56;;;;;;;4.03;3.33;;;15.10;84.20;;;;;;4930377;29;20284;-68
2022/08/30 01:42:22;;;;;;;8.10;3.20;;;15.10;84.20;;;;;;4924198;29;20458;-68
2022/08/30 01:44:48;;;;;;;5.73;2.90;;;15.10;84.30;;;;;;4906848;29;20131;-68
2022/08/30 01:47:17;;;;;;;3.77;2.53;;;15.10;84.30;;;;;;4910857;29;20665;-68
2022/08/30 01:49:43;;;;;;;5.07;2.73;;;15.10;84.30;;;;;;4929511;29;20295;-68
2022/08/30 01:52:10;;;;;;;5.83;3.10;;;15.10;84.20;;;;;;4929880;29;20303;-68
2022/08/30 01:54:39;;;;;;;5.53;3.20;;;15.10;84.20;;;;;;4940440;28;20833;-68
2022/08/30 01:57:07;;;;;;;5.97;2.90;;;15.00;84.20;;;;;;4928809;29;20338;-68
2022/08/30 01:59:33;;;;;;;3.77;2.87;;;15.00;84.20;;;;;;4921520;29;20641;-68
2022/08/30 02:01:59;;;;;;;6.37;2.80;;;15.00;84.20;;;;;;4940743;28;20322;-68
2022/08/30 02:04:25;;;;;;;4.10;3.10;;;15.00;84.30;;;;;;4896973;29;20322;-68
2022/08/30 02:06:52;;;;;;;3.97;3.20;;;14.90;84.60;;;;;;4918307;29;20050;-68
2022/08/30 02:09:18;;;;;;;7.27;3.10;;;14.90;84.50;;;;;;4910073;29;20300;-68
2022/08/30 02:11:44;;;;;;;4.70;2.70;;;14.90;84.60;;;;;;4911041;29;20291;-68
2022/08/30 02:14:10;;;;;;;5.20;2.67;;;14.90;84.60;;;;;;4923903;29;20316;-68
2022/08/30 02:16:36;;;;;;;4.57;2.80;;;14.90;84.50;;;;;;4917640;29;20349;-68
2022/08/30 02:19:02;;;;;;;4.93;2.70;;;14.90;84.60;;;;;;4924518;29;20044;-68
2022/08/30 02:21:28;;;;;;;4.57;2.40;;;14.90;84.60;;;;;;4932896;29;20050;-68
2022/08/30 02:23:54;;;;;;;5.20;2.60;;;14.90;84.60;;;;;;4930958;29;20366;-68
2022/08/30 02:26:21;;;;;;;4.83;2.73;;;14.90;84.60;;;;;;4919564;29;20078;-68
2022/08/30 02:28:47;;;;;;;4.17;2.93;;;14.90;84.70;;;;;;4908528;29;20279;-68
2022/08/30 02:31:12;;;;;;;4.70;2.83;;;14.90;85.00;;;;;;4934661;29;20365;-68
2022/08/30 02:33:38;;;;;;;4.30;2.80;;;14.80;85.20;;;;;;4938027;29;20052;-68
2022/08/30 02:36:05;;;;;;;4.03;2.60;;;14.80;85.10;;;;;;4931605;29;20070;-68
2022/08/30 02:38:31;;;;;;;5.20;2.60;;;14.80;85.40;;;;;;4928425;29;20477;-68
2022/08/30 02:40:57;;;;;;;3.30;2.80;;;14.80;85.30;;;;;;4920966;29;20630;-68
2022/08/30 02:43:23;;;;;;;5.53;3.37;;;14.70;85.40;;;;;;4927077;29;20126;-68
2022/08/30 02:45:49;;;;;;;5.20;2.57;;;14.70;85.30;;;;;;4941470;28;20043;-68
2022/08/30 02:48:15;;;;;;;4.63;2.83;;;14.70;85.20;;;;;;4908534;29;20344;-68
2022/08/30 02:50:50;;;;;;;5.97;2.90;;;14.70;85.20;;;;;;4890750;29;20312;-68
2022/08/30 02:53:16;;;;;;;4.80;2.77;;;14.70;85.20;;;;;;4916388;29;20090;-68
2022/08/30 02:55:43;;;;;;;4.87;2.77;;;14.70;85.10;;;;;;4912304;29;20817;-68
2022/08/30 02:58:09;;;;;;;7.47;2.83;;;14.70;85.10;;;;;;4934303;29;20493;-68
2022/08/30 03:00:35;;;;;;;5.20;2.87;;;14.70;85.10;;;;;;4916426;29;20296;-68
2022/08/30 03:03:02;;;;;;;7.07;2.73;;;14.70;85.10;;;;;;4917859;29;20287;-68
2022/08/30 03:05:29;;;;;;;4.43;2.60;;;14.70;85.10;;;;;;4932601;29;20373;-68
2022/08/30 03:07:55;;;;;;;6.53;2.50;;;14.70;85.20;;;;;;4915782;29;20291;-68
2022/08/30 03:10:20;;;;;;;7.27;2.63;;;14.70;85.10;;;;;;4919196;29;20325;-68
2022/08/30 03:12:47;;;;;;;4.90;2.80;;;14.60;85.10;;;;;;4916916;29;20043;-68
2022/08/30 03:15:14;;;;;;;4.97;2.40;;;14.60;85.00;;;;;;4940080;29;20039;-68
2022/08/30 03:17:40;;;;;;;6.27;2.70;;;14.60;85.10;;;;;;4920248;29;20354;-68
2022/08/30 03:20:08;;;;;;;4.33;2.30;;;14.50;85.10;;;;;;4914305;29;20291;-68
2022/08/30 03:22:34;;;;;;;5.13;2.73;;;14.50;85.10;;;;;;4914081;29;20294;-68
2022/08/30 03:25:00;;;;;;;4.30;2.60;;;14.40;85.10;;;;;;4932543;29;20287;-68
2022/08/30 03:27:27;;;;;;;4.33;2.27;;;14.40;85.10;;;;;;4914566;29;20299;-68
2022/08/30 03:29:54;;;;;;;4.67;2.63;;;14.30;85.10;;;;;;4929274;29;20626;-68
2022/08/30 03:32:20;;;;;;;4.17;2.20;;;14.30;85.20;;;;;;4918696;29;20299;-68
2022/08/30 03:34:46;;;;;;;6.13;3.00;;;14.20;85.30;;;;;;4915323;29;20303;-68
2022/08/30 03:37:12;;;;;;;4.40;2.23;;;14.20;85.20;;;;;;4920208;29;20409;-68
2022/08/30 03:39:38;;;;;;;4.03;2.80;;;14.10;85.20;;;;;;4919682;29;20075;-68
2022/08/30 03:42:04;;;;;;;5.70;2.50;;;14.10;85.20;;;;;;4914201;29;20040;-68
2022/08/30 03:44:29;;;;;;;4.60;2.77;;;14.00;85.30;;;;;;4919666;29;20318;-68
2022/08/30 03:46:55;;;;;;;4.87;2.80;;;14.00;85.30;;;;;;4909755;29;20494;-68
2022/08/30 03:49:21;;;;;;;5.03;2.60;;;13.90;85.40;;;;;;4927227;29;20047;-68
2022/08/30 03:51:47;;;;;;;5.73;3.20;;;13.90;85.40;;;;;;4920650;29;20048;-68
2022/08/30 03:54:13;;;;;;;5.83;2.50;;;13.90;85.50;;;;;;4908831;29;20052;-68
2022/08/30 03:56:39;;;;;;;4.33;2.73;;;13.80;85.50;;;;;;4921923;29;20048;-68
2022/08/30 03:59:05;;;;;;;4.97;2.97;;;13.70;85.70;;;;;;4909598;29;20303;-68
2022/08/30 04:01:31;;;;;;;5.77;3.00;;;13.70;85.80;;;;;;4897339;29;20044;-68
2022/08/30 04:03:57;;;;;;;4.57;2.80;;;13.70;85.80;;;;;;4901258;29;20958;-68
2022/08/30 04:06:22;;;;;;;4.30;2.30;;;13.70;85.90;;;;;;4910538;29;20051;-68
2022/08/30 04:08:48;;;;;;;4.30;2.40;;;13.60;86.00;;;;;;4919600;29;20047;-68
2022/08/30 04:11:15;;;;;;;4.70;2.40;;;13.60;86.00;;;;;;4914771;29;20118;-68
2022/08/30 04:13:43;;;;;;;5.77;2.87;;;13.60;86.20;;;;;;4912866;29;20048;-68
2022/08/30 04:16:09;;;;;;;6.07;2.73;;;13.60;86.00;;;;;;4929568;29;20832;-68
2022/08/30 04:18:35;;;;;;;4.07;3.03;;;13.60;86.00;;;;;;4925853;29;20601;-68
2022/08/30 04:21:03;;;;;;;5.53;2.93;;;13.60;86.20;;;;;;4927596;29;20043;-68
2022/08/30 04:23:28;;;;;;;5.97;3.20;;;13.60;86.20;;;;;;4943545;28;20655;-68
2022/08/30 04:25:54;;;;;;;4.83;2.87;;;13.60;86.40;;;;;;4922240;29;20576;-68
2022/08/30 04:28:21;;;;;;;5.00;2.93;;;13.60;86.60;;;;;;4925700;29;20072;-68
2022/08/30 04:30:47;;;;;;;4.40;3.20;;;13.60;86.50;;;;;;4912501;29;20283;-68
2022/08/30 04:33:14;;;;;;;4.43;2.83;;;13.60;86.60;;;;;;4895970;29;20296;-68
2022/08/30 04:35:46;;;;;;;4.63;3.00;;;13.60;86.60;;;;;;4909574;29;20044;-68
2022/08/30 04:38:13;;;;;;;5.83;3.27;;;13.50;86.70;;;;;;4935785;29;20325;-68
2022/08/30 04:40:43;;;;;;;6.80;3.20;;;13.60;86.80;;;;;;4915169;29;20415;-68
2022/08/30 04:43:11;;;;;;;7.30;3.80;;;13.60;86.90;;;;;;4909697;29;20291;-68
2022/08/30 04:45:39;;;;;;;6.30;3.77;;;13.60;86.80;;;;;;4916844;29;20302;-68
2022/08/30 04:48:05;;;;;;;6.87;3.90;;;13.60;86.80;;;;;;4928014;29;20297;-68
2022/08/30 04:50:31;;;;;;;4.77;3.60;;;13.60;86.70;;;;;;4915224;29;20366;-68
2022/08/30 04:52:57;;;;;;;5.57;4.00;;;13.60;86.70;;;;;;4915655;29;20377;-68
2022/08/30 04:55:24;;;;;;;6.63;3.67;;;13.60;86.70;;;;;;4922276;29;20300;-68
2022/08/30 04:57:51;;;;;;;8.10;3.63;;;13.60;86.70;;;;;;4920482;29;20091;-68
2022/08/30 05:00:20;;;;;;;5.13;3.83;;;13.60;86.80;;;;;;4921234;29;20642;-68
2022/08/30 05:02:46;;;;;;;6.97;4.10;;;13.60;86.80;;;;;;4930237;29;20357;-68
2022/08/30 05:07:56;;;;;;;6.05;3.90;;;13.60;86.80;;;;;;4911892;29;20311;-68
2022/08/30 05:10:23;;;;;;;6.90;3.87;;;13.60;87.00;;;;;;4895968;29;20491;-68
2022/08/30 05:12:49;;;;;;;5.23;3.47;;;13.60;86.90;;;;;;4912193;29;20113;-68
2022/08/30 05:15:15;;;;;;;5.43;3.70;;;13.60;87.00;;;;;;4916000;29;20697;-67
2022/08/30 05:17:41;;;;;;;9.40;4.10;;;13.60;87.10;;;;;;4912884;29;20315;-67
2022/08/30 05:20:09;;;;;;;5.97;4.03;;;13.60;87.20;;;;;;4932356;29;20284;-67
2022/08/30 05:22:36;;;;;;;8.33;3.93;;;13.60;87.30;;;;;;4920640;29;20066;-68
2022/08/30 05:25:03;;;;;;;7.37;4.33;;;13.70;87.20;;;;;;4923228;29;20279;-68
2022/08/30 05:27:30;;;;;;;6.40;4.20;;;13.70;87.10;;;;;;4917592;29;20303;-68
2022/08/30 05:29:56;;;;;;;9.53;4.47;;;13.80;87.10;;;;;;4914231;29;20789;-68
2022/08/30 05:32:22;;;;;;;6.40;3.70;;;13.80;87.10;;;;;;4931473;29;20302;-68
2022/08/30 05:34:47;;;;;;;7.97;4.37;;;13.90;87.00;;;;;;4911358;29;20050;-68
2022/08/30 05:37:13;;;;;;;9.80;3.70;;;13.90;86.80;;;;;;4916749;29;20362;-68
2022/08/30 05:39:39;;;;;;;8.10;4.10;;;13.90;87.00;;;;;;4911824;29;20118;-68
2022/08/30 05:42:05;;;;;;;6.37;3.40;;;13.90;86.90;;;;;;4923815;29;20071;-68
2022/08/30 05:44:30;;;;;;;5.63;4.10;;;14.00;86.90;;;;;;4906470;29;20035;-68
2022/08/30 05:46:56;;;;;;;4.60;3.83;;;14.00;86.90;;;;;;4914554;29;20047;-68
2022/08/30 05:49:22;;;;;;;5.73;4.07;;;14.00;87.10;;;;;;4901813;29;20072;-68
2022/08/30 05:51:48;;;;;;;7.77;4.17;;;14.10;87.10;;;;;;4897908;29;20044;-68
2022/08/30 05:54:14;;;;;;;7.07;4.10;;;14.10;87.00;;;;;;4933711;29;20279;-68
2022/08/30 05:56:44;;;;;;;6.47;4.20;;;14.20;86.80;;;;;;4917497;29;20036;-68
2022/08/30 05:59:11;;;;;;;5.27;3.90;;;14.20;86.90;;;;;;4934451;29;20333;-68
2022/08/30 06:01:41;;;;;;;7.10;4.27;;;14.30;86.90;;;;;;4917052;29;20321;-68
2022/08/30 06:04:10;;;;;;;6.20;3.80;;;14.30;86.90;;;;;;4943593;29;20286;-68
2022/08/30 06:06:38;;;;;;;8.47;3.77;;;14.40;86.60;;;;;;4920356;29;20283;-68
2022/08/30 06:09:05;;;;;;;7.80;4.07;;;14.40;86.50;;;;;;4941234;29;20295;-68
2022/08/30 06:11:32;;;;;;;5.03;3.67;;;14.50;86.60;;;;;;4911444;29;20335;-68
2022/08/30 06:13:57;;;;;;;6.20;3.40;;;14.60;86.40;;;;;;4933022;29;20311;-68
2022/08/30 06:16:26;;;;;;;5.80;4.00;;;14.60;86.30;;;;;;4908880;29;20346;-68
2022/08/30 06:18:53;;;;;;;6.90;4.13;;;14.70;86.10;;;;;;4931305;29;20662;-68
2022/08/30 06:21:25;;;;;;;4.93;3.83;;;14.80;85.90;;;;;;4911844;29;20306;-68
2022/08/30 06:23:51;;;;;;;6.37;3.60;;;15.00;85.30;;;;;;4931836;29;20302;-68
2022/08/30 06:26:17;;;;;;;5.53;3.70;;;15.00;85.10;;;;;;4925808;29;20284;-68
2022/08/30 06:28:44;;;;;;;5.17;3.60;;;15.10;84.80;;;;;;4928245;29;20292;-68
2022/08/30 06:31:12;;;;;;;5.97;3.57;;;15.20;84.40;;;;;;4932403;29;20388;-68
2022/08/30 06:33:38;;;;;;;6.53;3.80;;;15.30;83.80;;;;;;4935303;29;20716;-68
2022/08/30 06:36:05;;;;;;;6.03;3.40;;;15.30;83.80;;;;;;4927439;29;20809;-68
2022/08/30 06:38:31;;;;;;;6.57;3.73;;;15.40;83.80;;;;;;4917744;29;20295;-68
2022/08/30 06:40:57;;;;;;;7.60;3.90;;;15.50;83.50;;;;;;4916302;29;20378;-68
2022/08/30 06:43:23;;;;;;;7.10;3.43;;;15.50;83.30;;;;;;4915271;29;20071;-68
2022/08/30 06:45:49;;;;;;;5.87;3.20;;;15.60;82.80;;;;;;4933472;29;20142;-68
2022/08/30 06:48:14;;;;;;;4.63;2.90;;;15.70;82.70;;;;;;4919080;29;20287;-68
2022/08/30 06:50:43;;;;;;;4.87;3.40;;;15.80;82.60;;;;;;4903128;29;20050;-68
2022/08/30 06:53:09;;;;;;;5.90;3.30;;;15.90;82.50;;;;;;4932292;29;20430;-68
2022/08/30 06:55:36;;;;;;;6.73;2.87;;;16.00;81.80;;;;;;4919431;29;20865;-68
2022/08/30 06:58:02;;;;;;;5.40;2.60;;;16.10;80.80;;;;;;4919286;29;20307;-68
2022/08/30 07:00:29;;;;;;;3.50;2.20;;;16.10;80.40;;;;;;4930512;28;20345;-68
2022/08/30 07:02:55;;;;;;;3.97;2.40;;;16.20;79.80;;;;;;4920268;29;20378;-68
2022/08/30 07:05:22;;;;;;;3.33;2.40;;;16.30;79.80;;;;;;4926164;29;20302;-68
2022/08/30 07:07:52;;;;;;;4.23;2.33;;;16.40;79.40;;;;;;4905530;29;20322;-68
2022/08/30 07:10:18;;;;;;;7.33;2.17;;;16.50;78.60;;;;;;4920465;29;20305;-68
2022/08/30 07:12:43;;;;;;;4.20;2.33;;;16.60;78.50;;;;;;4936283;28;20291;-68
2022/08/30 07:15:10;;;;;;;5.73;2.03;;;16.70;78.60;;;;;;4949959;28;20294;-68
2022/08/30 07:20:20;;;;;;;3.30;1.97;;;16.90;78.00;;;;;;4932125;29;20314;-68
2022/08/30 07:22:47;;;;;;;6.87;2.13;;;17.00;76.40;;;;;;4903500;28;20326;-68
2022/08/30 07:25:14;;;;;;;5.47;1.90;;;17.10;76.60;;;;;;4931548;29;20287;-68
2022/08/30 07:27:40;;;;;;;5.33;1.67;;;17.20;75.00;;;;;;4917307;28;20300;-68
2022/08/30 07:30:07;;;;;;;2.97;1.43;;;17.30;75.00;;;;;;4936339;29;20286;-68
2022/08/30 07:32:33;;;;;;;5.53;1.87;;;17.30;74.80;;;;;;4938911;28;20286;-68
2022/08/30 07:34:59;;;;;;;3.20;1.50;;;17.40;74.20;;;;;;4922113;29;20365;-67
2022/08/30 07:37:25;;;;;;;3.37;1.70;;;17.50;74.30;;;;;;4902962;28;20043;-67
2022/08/30 07:39:51;;;;;;;2.93;1.20;;;17.60;74.50;;;;;;4912588;28;20040;-67
2022/08/30 07:42:17;;;;;;;4.13;1.50;;;17.70;73.70;;;;;;4928450;28;20044;-67
2022/08/30 07:44:42;;;;;;;5.67;1.50;;;17.80;73.70;;;;;;4915870;28;20107;-67
2022/08/30 07:47:09;;;;;;;7.50;1.37;;;17.80;73.90;;;;;;4920466;29;20635;-67
2022/08/30 07:49:36;;;;;;;6.53;1.50;;;18.00;73.80;;;;;;4934874;29;20054;-67
2022/08/30 07:52:02;;;;;;;3.30;0.90;;;18.10;72.10;;;;;;4903038;28;20289;-67
2022/08/30 07:54:28;;;;;;;3.50;0.90;;;18.20;71.20;;;;;;4929296;28;20301;-67
2022/08/30 07:56:54;;;;;;;2.63;0.80;;;18.30;69.30;;;;;;4927049;28;20668;-67
2022/08/30 07:59:21;;;;;;;2.93;0.67;;;18.30;69.30;;;;;;4910691;29;20122;-67
2022/08/30 08:01:47;;;;;;;2.43;0.90;;;18.40;68.50;;;;;;4915715;29;20301;-67
2022/08/30 08:04:13;;;;;;;2.90;0.93;;;18.50;68.20;;;;;;4928154;29;20362;-67
2022/08/30 08:06:39;;;;;;;5.33;0.80;;;18.60;67.20;;;;;;4912603;29;20453;-67
2022/08/30 08:09:06;;;;;;;3.43;0.80;;;18.70;65.90;;;;;;4909447;29;20051;-67
2022/08/30 08:11:33;;;;;;;3.07;1.03;;;18.70;65.90;;;;;;4906043;29;20299;-67
2022/08/30 08:14:00;;;;;;;1.87;0.70;;;18.80;66.70;;;;;;4927529;29;20291;-68
2022/08/30 08:16:27;;;;;;;3.57;0.97;;;18.80;66.40;;;;;;4930107;29;20684;-68
2022/08/30 08:18:54;;;;;;;2.97;0.70;;;18.90;66.10;;;;;;4914230;29;20344;-68
2022/08/30 08:21:21;;;;;;;2.03;0.90;;;19.10;64.90;;;;;;4923857;28;20299;-68
2022/08/30 08:23:47;;;;;;;3.20;0.70;;;19.10;64.70;;;;;;4913650;29;20288;-68
2022/08/30 08:26:13;;;;;;;6.00;1.47;;;19.20;65.30;;;;;;4910578;29;20287;-68
2022/08/30 08:28:39;;;;;;;4.37;1.03;;;19.20;65.30;;;;;;4914366;29;20043;-68
2022/08/30 08:31:17;;;;;;;2.70;0.70;;;19.40;64.00;;;;;;4910690;29;20039;-68
2022/08/30 08:33:43;;;;;;;3.13;0.67;;;19.40;63.00;;;;;;4913404;29;20126;-67
2022/08/30 08:36:09;;;;;;;2.73;0.90;;;19.40;63.80;;;;;;4914017;29;20295;-67
2022/08/30 08:38:35;;;;;;;2.53;0.73;;;19.50;63.00;;;;;;4892956;29;20311;-67
2022/08/30 08:41:16;;;;;;;2.33;1.00;;;19.60;62.90;;;;;;4895904;29;21315;-67
2022/08/30 08:43:42;;;;;;;2.30;0.97;;;19.60;63.10;;;;;;4924061;29;20135;-67
2022/08/30 08:46:26;;;;;;;3.40;1.00;;;19.70;62.90;;;;;;4894273;29;20881;-67
2022/08/30 08:48:56;;;;;;;4.80;1.33;;;19.80;62.40;;;;;;4909337;29;20044;-68
2022/08/30 08:54:19;;;;;;;5.33;1.10;;;20.00;61.20;;;;;;4925314;29;20401;-68
2022/08/30 08:56:45;;;;;;;2.07;0.60;;;20.10;60.80;;;;;;4908586;29;20375;-68
2022/08/30 08:59:13;;;;;;;2.73;0.80;;;20.20;60.20;;;;;;4891704;29;20064;-68
2022/08/30 09:01:39;;;;;;;3.23;0.80;;;20.30;60.80;;;;;;4926299;29;20280;-68
2022/08/30 09:04:16;;;;;;;5.50;0.80;;;20.40;60.20;;;;;;4924178;29;20036;-68
2022/08/30 09:07:03;;;;;;;2.10;0.80;;;20.60;60.10;;;;;;4908860;29;20123;-68
2022/08/30 09:09:34;;;;;;;2.97;1.00;;;20.70;58.70;;;;;;4923370;29;20079;-68
2022/08/30 09:12:00;;;;;;;5.30;1.50;;;20.70;59.10;;;;;;4925865;29;20134;-68
2022/08/30 09:14:33;;;;;;;2.47;0.60;;;20.80;59.00;;;;;;4908992;29;20051;-68
2022/08/30 09:17:00;;;;;;;3.43;0.90;;;20.80;59.20;;;;;;4923875;28;20492;-68
2022/08/30 09:19:33;;;;;;;3.77;0.80;;;20.90;59.40;;;;;;4924063;29;20075;-68
2022/08/30 09:22:01;;;;;;;2.03;1.00;;;21.00;59.90;;;;;;4908353;29;20048;-68
2022/08/30 09:24:37;;;;;;;2.20;0.70;;;21.30;57.80;;;;;;4920831;29;20044;-68
2022/08/30 09:27:23;;;;;;;3.00;0.80;;;21.40;57.50;;;;;;4923408;29;20138;-68
2022/08/30 09:30:01;;;;;;;2.43;0.90;;;21.50;57.50;;;;;;4922173;29;20182;-68
2022/08/30 09:32:31;;;;;;;2.20;0.80;;;21.60;57.00;;;;;;4923528;29;20138;-68
2022/08/30 09:34:58;;;;;;;1.53;1.20;;;21.60;56.30;;;;;;4912348;29;20447;-68
2022/08/30 09:37:34;;;;;;;2.60;0.70;;;21.60;56.40;;;;;;4923446;29;20571;-68
2022/08/30 09:40:07;;;;;;;2.47;0.90;;;21.70;56.90;;;;;;4928083;29;20044;-68
2022/08/30 09:42:33;;;;;;;3.23;0.93;;;21.70;56.40;;;;;;4927492;29;20047;-68
2022/08/30 09:45:11;;;;;;;1.23;0.57;;;21.70;55.60;;;;;;4913041;29;20031;-68
2022/08/30 09:47:42;;;;;;;2.47;0.80;;;21.80;56.10;;;;;;4916719;29;20080;-68
2022/08/30 09:50:10;;;;;;;1.30;0.60;;;21.90;55.20;;;;;;4923777;29;20040;-68
2022/08/30 09:52:55;;;;;;;3.63;0.70;;;22.00;54.70;;;;;;4907910;29;20071;-68
2022/08/30 09:55:37;;;;;;;2.60;1.00;;;21.90;54.20;;;;;;4932054;29;20048;-68
2022/08/30 09:58:08;;;;;;;5.00;1.17;;;21.80;55.10;;;;;;4927265;29;20115;-68
2022/08/30 10:00:43;;;;;;;2.13;0.87;;;21.90;55.90;;;;;;4925714;28;20056;-68
2022/08/30 10:04:01;;;;;;;2.10;0.63;;;22.00;54.40;;;;;;4913901;29;20027;-68
2022/08/30 10:06:44;;;;;;;1.50;0.53;;;22.10;55.30;;;;;;4855960;29;20044;-68
2022/08/30 10:09:31;;;;;;;2.77;0.67;;;22.30;54.70;;;;;;4915619;29;20059;-68
2022/08/30 10:12:21;;;;;;;2.43;0.70;;;22.30;53.60;;;;;;4928809;29;20058;-68
2022/08/30 10:15:23;;;;;;;2.30;0.70;;;22.30;53.60;;;;;;4935372;28;20495;-68
2022/08/30 10:18:26;;;;;;;2.30;0.70;;;22.30;53.10;;;;;;4921173;28;20036;-68
2022/08/30 10:21:01;;;;;;;2.70;0.90;;;22.50;52.60;;;;;;4891469;29;20047;-68
2022/08/30 10:23:31;;;;;;;1.98;0.50;;;22.60;52.70;;;;;;4919185;29;20146;-68
2022/08/30 10:26:28;;;;;;;3.90;0.70;;;22.70;51.90;;;;;;4935700;28;20594;-68
2022/08/30 10:28:59;;;;;;;2.40;0.70;;;22.80;51.10;;;;;;4936960;29;20403;-68
2022/08/30 10:31:44;;;;;;;1.97;0.70;;;22.80;50.80;;;;;;4938605;29;20389;-68
2022/08/30 10:34:40;;;;;;;1.95;0.60;;;22.80;50.90;;;;;;4935209;28;20074;-68
2022/08/30 10:37:15;;;;;;;2.57;0.50;;;22.80;49.80;;;;;;4928833;29;20087;-68
2022/08/30 10:39:53;;;;;;;3.20;0.70;;;22.80;49.20;;;;;;4921325;28;20051;-68
2022/08/30 10:42:37;;;;;;;5.93;0.70;;;22.80;49.00;;;;;;4933609;28;20035;-69
2022/08/30 10:45:11;;;;;;;3.97;0.60;;;22.90;50.00;;;;;;4934774;29;20102;-68
2022/08/30 10:47:53;;;;;;;3.13;0.47;;;22.80;50.20;;;;;;4933580;29;20047;-68
2022/08/30 10:50:50;;;;;;;1.47;0.53;;;22.80;51.40;;;;;;4936898;28;20405;-68
2022/08/30 10:53:46;;;;;;;2.80;0.60;;;23.00;49.80;;;;;;4932717;29;20058;-68
2022/08/30 10:56:17;;;;;;;2.50;0.43;;;23.00;49.50;;;;;;4917412;29;20629;-68
2022/08/30 10:58:43;;;;;;;2.83;0.40;;;23.00;49.70;;;;;;4935677;28;20144;-68
2022/08/30 11:01:17;;;;;;;2.43;0.70;;;23.10;49.60;;;;;;4897493;29;20040;-68
2022/08/30 11:04:21;;;;;;;2.10;0.70;;;23.20;49.70;;;;;;4934431;29;20496;-68
2022/08/30 11:06:58;;;;;;;0.97;0.40;;;23.30;49.50;;;;;;4936621;28;20050;-68
2022/08/30 11:09:54;;;;;;;2.93;0.90;;;23.30;49.00;;;;;;4912468;29;20539;-70
2022/08/30 11:12:34;;;;;;;3.13;0.50;;;23.30;49.40;;;;;;4934882;29;20076;-69
2022/08/30 11:15:31;;;;;;;3.13;0.80;;;23.40;48.50;;;;;;4929259;29;20047;-68
2022/08/30 11:18:20;;;;;;;1.47;0.50;;;23.30;47.80;;;;;;4937781;28;20056;-68
2022/08/30 11:20:49;;;;;;;4.53;1.10;;;23.20;48.10;;;;;;4920825;29;20130;-68
2022/08/30 11:23:18;;;;;;;3.07;0.57;;;23.10;48.50;;;;;;4935867;28;20039;-68
2022/08/30 11:26:01;;;;;;;1.30;0.40;;;23.20;48.10;;;;;;4933925;29;20043;-68
2022/08/30 11:28:37;;;;;;;1.30;0.50;;;23.10;47.60;;;;;;4931600;28;20125;-69
2022/08/30 11:31:33;;;;;;;2.60;0.57;;;23.00;46.60;;;;;;4930410;29;20051;-68
2022/08/30 11:34:00;;;;;;;1.43;0.40;;;23.00;46.60;;;;;;4918261;28;20059;-68
2022/08/30 11:36:29;;;;;;;1.27;0.30;;;22.90;47.20;;;;;;4931328;28;20088;-68
2022/08/30 11:38:54;;;;;;;1.37;0.57;;;23.00;47.60;;;;;;4915997;28;20310;-68
2022/08/30 11:41:45;;;;;;;1.90;0.63;;;23.00;47.20;;;;;;4911055;28;20040;-68
2022/08/30 11:44:22;;;;;;;1.10;0.40;;;23.10;46.80;;;;;;4930649;28;20046;-71
2022/08/30 11:46:53;;;;;;;2.87;0.40;;;23.10;45.70;;;;;;4934955;29;20105;-67
2022/08/30 11:49:33;;;;;;;1.63;0.37;;;23.10;44.10;;;;;;4934115;28;20054;-68
2022/08/30 11:52:04;;;;;;;1.27;0.30;;;23.10;45.50;;;;;;4935418;28;20043;-67
2022/08/30 11:54:36;;;;;;;3.20;0.70;;;23.20;45.20;;;;;;4913489;28;20059;-67
2022/08/30 11:57:47;;;;;;;3.70;0.37;;;23.20;45.00;;;;;;4935315;28;20049;-68
2022/08/30 12:00:34;;;;;;;1.67;0.40;;;23.30;45.80;;;;;;4896553;29;20054;-68
2022/08/30 12:03:29;;;;;;;2.20;0.40;;;23.30;46.20;;;;;;4932614;29;20405;-67
2022/08/30 12:06:03;;;;;;;2.75;0.60;;;23.40;44.60;;;;;;4921996;28;20093;-68
2022/08/30 12:08:33;;;;;;;2.38;0.55;;;23.40;45.90;;;;;;4916933;28;20157;-68
2022/08/30 12:11:09;;;;;;;2.40;0.40;;;23.50;46.30;;;;;;4914315;29;20059;-69
2022/08/30 12:13:37;;;;;;;0.93;0.20;;;23.50;45.40;;;;;;4946185;28;20052;-68
2022/08/30 12:16:13;;;;;;;2.03;0.40;;;23.60;45.20;;;;;;4916304;29;20047;-68
2022/08/30 12:18:54;;;;;;;4.30;0.50;;;23.70;44.10;;;;;;4930455;28;20071;-67
2022/08/30 12:21:19;;;;;;;1.20;0.50;;;23.70;43.60;;;;;;4914529;28;20071;-68
2022/08/30 12:24:18;;;;;;;1.23;0.43;;;23.70;43.90;;;;;;4915812;29;20500;-70
2022/08/30 12:26:46;;;;;;;0.90;0.50;;;23.70;43.80;;;;;;4935448;28;20059;-69
2022/08/30 12:29:26;;;;;;;1.30;0.30;;;23.60;44.50;;;;;;4915394;28;20420;-68
2022/08/30 12:31:55;;;;;;;1.23;0.50;;;23.70;44.80;;;;;;4931819;29;20043;-68
2022/08/30 12:34:34;;;;;;;1.20;0.40;;;23.80;45.30;;;;;;4923188;28;20146;-68
2022/08/30 12:37:09;;;;;;;1.77;0.50;;;23.90;44.60;;;;;;4929163;29;20492;-67
2022/08/30 12:39:41;;;;;;;2.67;0.63;;;24.00;45.10;;;;;;4934550;28;20054;-68
2022/08/30 12:42:10;;;;;;;0.90;0.30;;;24.00;45.20;;;;;;4934720;29;20031;-68
2022/08/30 12:44:37;;;;;;;2.10;0.47;;;24.10;45.80;;;;;;4913186;28;20043;-67
2022/08/30 12:47:05;;;;;;;3.07;0.40;;;24.10;46.20;;;;;;4931074;28;20095;-67
2022/08/30 12:49:35;;;;;;;1.27;0.47;;;24.20;45.80;;;;;;4935034;28;20389;-67
2022/08/30 12:52:27;;;;;;;3.00;0.40;;;24.20;45.40;;;;;;4911326;28;20118;-68
2022/08/30 12:54:55;;;;;;;3.43;0.60;;;24.30;45.70;;;;;;4935280;29;20043;-67
2022/08/30 12:57:39;;;;;;;2.43;0.63;;;24.20;45.90;;;;;;4914054;28;20039;-68
2022/08/30 13:00:08;;;;;;;1.30;0.50;;;24.20;46.20;;;;;;4928328;28;20086;-67
2022/08/30 13:02:51;;;;;;;3.90;0.67;;;24.20;46.50;;;;;;4911156;28;20039;-68
2022/08/30 13:05:39;;;;;;;5.40;0.57;;;24.30;46.60;;;;;;4932682;28;20046;-68
2022/08/30 13:08:11;;;;;;;1.57;0.50;;;24.30;46.70;;;;;;4945642;28;20050;-68
2022/08/30 13:10:53;;;;;;;4.03;0.60;;;24.40;46.90;;;;;;4926354;28;20051;-67
2022/08/30 13:13:39;;;;;;;1.47;0.40;;;24.50;46.50;;;;;;4913166;28;20042;-68
2022/08/30 13:16:17;;;;;;;0.93;0.40;;;24.50;46.30;;;;;;4912821;29;20083;-67